Time;durP1;ratioP1;P1;durP2;ratioP2;P2;SDS_P1;SDS_P2;PMS_P1;PMS_P2;Temp;Humidity;BMP_temperature;BMP_pressure;BME280_temperature;BME280_humidity;BME280_pressure;Samples;Min_cycle;Max_cycle;Signal;HPM_P1;HPM_P2
2022/09/14 00:01:10;;;;;;;5.28;1.60;;;17.60;70.50;;;;;;5072015;28;20024;-25
2022/09/14 00:03:36;;;;;;;4.75;1.27;;;17.60;70.50;;;;;;5072279;28;20024;-25
2022/09/14 00:06:06;;;;;;;3.67;1.05;;;17.60;70.50;;;;;;5072178;28;20448;-24
2022/09/14 00:08:33;;;;;;;3.00;1.02;;;17.60;70.60;;;;;;5072339;28;20025;-24
2022/09/14 00:11:03;;;;;;;4.72;1.10;;;17.60;70.60;;;;;;5073103;28;20027;-25
2022/09/14 00:13:29;;;;;;;3.15;1.10;;;17.60;70.60;;;;;;5076306;28;20016;-24
2022/09/14 00:15:55;;;;;;;3.38;1.00;;;17.50;70.50;;;;;;5075993;28;20115;-26
2022/09/14 00:18:21;;;;;;;3.22;1.30;;;17.60;70.50;;;;;;5075969;28;20070;-40
2022/09/14 00:20:46;;;;;;;4.15;0.93;;;17.60;70.50;;;;;;5076178;28;20123;-41
2022/09/14 00:23:12;;;;;;;3.13;1.10;;;17.60;70.60;;;;;;5075961;28;20025;-42
2022/09/14 00:25:37;;;;;;;3.13;0.90;;;17.50;70.50;;;;;;5075798;28;20546;-28
2022/09/14 00:28:03;;;;;;;3.45;1.00;;;17.50;70.50;;;;;;5075715;28;20025;-24
2022/09/14 00:30:28;;;;;;;3.45;1.00;;;17.50;70.60;;;;;;5075851;28;20028;-24
2022/09/14 00:32:54;;;;;;;2.95;1.00;;;17.50;70.60;;;;;;5076170;28;20091;-27
2022/09/14 00:35:20;;;;;;;6.97;1.33;;;17.50;70.60;;;;;;5075864;28;20013;-24
2022/09/14 00:37:49;;;;;;;2.60;0.95;;;17.40;70.60;;;;;;5074241;28;20498;-25
2022/09/14 00:40:15;;;;;;;3.97;1.10;;;17.40;70.60;;;;;;5075781;28;20055;-28
2022/09/14 00:42:41;;;;;;;3.75;1.40;;;17.40;70.60;;;;;;5075443;28;20500;-25
2022/09/14 00:45:15;;;;;;;5.72;0.95;;;17.40;70.60;;;;;;5075433;28;20027;-25
2022/09/14 00:47:42;;;;;;;2.03;0.85;;;17.40;70.70;;;;;;5075656;28;20107;-24
2022/09/14 00:50:10;;;;;;;3.80;1.05;;;17.30;70.60;;;;;;5075227;28;20070;-24
2022/09/14 00:52:39;;;;;;;3.38;0.90;;;17.30;70.70;;;;;;5075511;28;20545;-25
2022/09/14 00:55:12;;;;;;;5.53;1.10;;;17.30;70.70;;;;;;5073874;28;20053;-38
2022/09/14 00:57:42;;;;;;;3.38;1.00;;;17.30;70.70;;;;;;5075425;28;20028;-41
2022/09/14 01:00:10;;;;;;;3.13;0.95;;;17.30;70.70;;;;;;5075025;28;20028;-43
2022/09/14 01:02:37;;;;;;;3.88;1.00;;;17.30;70.70;;;;;;5075552;28;20435;-40
2022/09/14 01:05:03;;;;;;;3.08;1.00;;;17.30;70.70;;;;;;5075302;28;20032;-41
2022/09/14 01:07:55;;;;;;;2.92;0.90;;;17.30;70.70;;;;;;5074805;28;20033;-25
2022/09/14 01:10:39;;;;;;;4.45;1.10;;;17.40;70.70;;;;;;5074731;28;20028;-24
2022/09/14 01:13:32;;;;;;;2.47;1.10;;;17.40;70.60;;;;;;5074788;28;20476;-25
2022/09/14 01:16:22;;;;;;;3.13;0.93;;;17.40;70.50;;;;;;5074966;28;20035;-24
2022/09/14 01:18:59;;;;;;;3.00;0.80;;;17.40;70.50;;;;;;5073023;28;20020;-24
2022/09/14 01:21:32;;;;;;;3.88;1.10;;;17.40;70.40;;;;;;5074475;28;20037;-24
2022/09/14 01:24:26;;;;;;;1.60;0.95;;;17.50;70.40;;;;;;5073547;28;20476;-25
2022/09/14 01:26:57;;;;;;;3.75;1.10;;;17.40;70.30;;;;;;5073140;28;20033;-27
2022/09/14 01:29:37;;;;;;;2.60;0.90;;;17.50;70.40;;;;;;5074259;28;20039;-27
2022/09/14 01:32:07;;;;;;;3.83;0.88;;;17.50;70.40;;;;;;5074260;28;20052;-26
2022/09/14 01:34:56;;;;;;;3.28;1.00;;;17.50;70.40;;;;;;5074175;28;20055;-42
2022/09/14 01:37:27;;;;;;;3.08;1.00;;;17.50;70.50;;;;;;5074418;28;20036;-40
2022/09/14 01:40:02;;;;;;;3.10;0.77;;;17.40;70.40;;;;;;5072861;28;20030;-27
2022/09/14 01:42:28;;;;;;;5.35;1.00;;;17.50;70.50;;;;;;5074057;28;20462;-27
2022/09/14 01:44:58;;;;;;;2.25;0.95;;;17.50;70.50;;;;;;5074216;28;20017;-27
2022/09/14 01:47:32;;;;;;;4.30;1.45;;;17.50;70.50;;;;;;5073953;28;20028;-27
2022/09/14 01:50:14;;;;;;;1.83;1.00;;;17.40;70.40;;;;;;5073714;28;20571;-24
2022/09/14 01:52:49;;;;;;;2.92;1.10;;;17.40;70.30;;;;;;5073878;28;20020;-24
2022/09/14 01:55:24;;;;;;;5.40;1.15;;;17.40;70.30;;;;;;5074151;28;20048;-27
2022/09/14 01:58:01;;;;;;;4.78;0.80;;;17.50;70.30;;;;;;5074026;28;20056;-34
2022/09/14 02:00:28;;;;;;;4.78;0.90;;;17.40;70.20;;;;;;5073849;28;20082;-24
2022/09/14 02:03:30;;;;;;;3.22;1.08;;;17.50;70.20;;;;;;5073706;28;20082;-24
2022/09/14 02:06:01;;;;;;;2.88;1.00;;;17.50;70.20;;;;;;5073601;28;20028;-25
2022/09/14 02:08:29;;;;;;;3.05;1.00;;;17.50;70.10;;;;;;5073713;28;20028;-25
2022/09/14 02:10:56;;;;;;;4.97;0.80;;;17.40;70.00;;;;;;5073416;28;20016;-25
2022/09/14 02:13:23;;;;;;;2.88;0.85;;;17.40;70.00;;;;;;5073407;28;20124;-23
2022/09/14 02:15:49;;;;;;;2.17;0.63;;;17.40;70.00;;;;;;5073437;28;20095;-23
2022/09/14 02:18:14;;;;;;;2.17;0.90;;;17.40;70.00;;;;;;5073391;28;20020;-25
2022/09/14 02:20:54;;;;;;;3.25;0.77;;;17.40;69.90;;;;;;5072084;28;20101;-23
2022/09/14 02:23:20;;;;;;;3.63;0.93;;;17.40;69.90;;;;;;5073276;28;20021;-40
2022/09/14 02:25:46;;;;;;;2.70;0.70;;;17.30;69.80;;;;;;5073324;28;20025;-42
2022/09/14 02:28:13;;;;;;;3.45;0.73;;;17.30;69.80;;;;;;5073144;28;20033;-41
2022/09/14 02:30:53;;;;;;;1.75;0.73;;;17.30;69.80;;;;;;5072930;28;20062;-29
2022/09/14 02:33:31;;;;;;;2.83;0.70;;;17.30;69.80;;;;;;5073007;28;20024;-27
2022/09/14 02:36:03;;;;;;;1.85;0.65;;;17.30;69.80;;;;;;5072950;28;20383;-27
2022/09/14 02:38:48;;;;;;;2.22;0.60;;;17.20;69.70;;;;;;5073147;28;20440;-43
2022/09/14 02:41:36;;;;;;;1.85;0.50;;;17.20;69.70;;;;;;5072919;28;20040;-39
2022/09/14 02:44:15;;;;;;;0.90;0.60;;;17.20;69.60;;;;;;5072750;28;20074;-41
2022/09/14 02:46:51;;;;;;;3.08;0.82;;;17.20;69.60;;;;;;5072670;28;20085;-42
2022/09/14 02:49:26;;;;;;;3.17;0.65;;;17.20;69.70;;;;;;5072583;28;20209;-24
2022/09/14 02:52:02;;;;;;;2.08;0.60;;;17.20;69.60;;;;;;5072787;28;20388;-24
2022/09/14 02:54:51;;;;;;;2.60;0.70;;;17.20;69.50;;;;;;5072641;28;20038;-23
2022/09/14 02:57:16;;;;;;;3.17;0.70;;;17.20;69.50;;;;;;5072460;28;20017;-24
2022/09/14 02:59:42;;;;;;;2.85;0.60;;;17.20;69.50;;;;;;5072586;28;20021;-41
2022/09/14 03:02:08;;;;;;;3.33;0.80;;;17.30;69.70;;;;;;5072471;28;20448;-39
2022/09/14 03:04:33;;;;;;;4.80;0.80;;;17.30;69.80;;;;;;5071310;28;20103;-39
2022/09/14 03:06:59;;;;;;;2.45;0.80;;;17.30;69.80;;;;;;5072587;28;20023;-27
2022/09/14 03:09:24;;;;;;;4.18;0.60;;;17.30;69.90;;;;;;5072270;28;20028;-27
2022/09/14 03:11:50;;;;;;;3.53;0.80;;;17.30;70.00;;;;;;5070850;28;20476;-26
2022/09/14 03:14:16;;;;;;;2.47;0.73;;;17.30;70.30;;;;;;5072672;28;20456;-42
2022/09/14 03:16:41;;;;;;;1.65;0.52;;;17.30;70.50;;;;;;5072393;28;20372;-39
2022/09/14 03:19:07;;;;;;;1.20;0.63;;;17.20;71.10;;;;;;5072098;28;20480;-42
2022/09/14 03:21:32;;;;;;;1.88;0.80;;;17.20;70.50;;;;;;5072073;28;20071;-30
2022/09/14 03:23:59;;;;;;;4.28;1.10;;;17.20;70.70;;;;;;5072168;28;20064;-28
2022/09/14 03:26:27;;;;;;;2.25;0.65;;;17.20;70.90;;;;;;5072080;28;20120;-26
2022/09/14 03:28:55;;;;;;;2.58;0.70;;;17.10;71.10;;;;;;5072003;28;20024;-24
2022/09/14 03:31:21;;;;;;;3.58;0.85;;;17.10;71.30;;;;;;5071926;28;20039;-23
2022/09/14 03:33:52;;;;;;;3.80;0.75;;;17.00;71.40;;;;;;5072169;28;20107;-39
2022/09/14 03:36:18;;;;;;;1.92;0.70;;;17.00;71.70;;;;;;5071869;28;20024;-24
2022/09/14 03:38:49;;;;;;;4.25;0.75;;;16.90;71.80;;;;;;5072054;28;20013;-23
2022/09/14 03:41:15;;;;;;;4.40;1.10;;;16.90;72.00;;;;;;5071818;28;20096;-25
2022/09/14 03:43:42;;;;;;;3.90;0.90;;;16.90;72.10;;;;;;5071961;28;20047;-24
2022/09/14 03:46:09;;;;;;;3.80;0.80;;;16.90;72.30;;;;;;5071115;28;20109;-26
2022/09/14 03:48:35;;;;;;;3.30;0.70;;;16.90;72.40;;;;;;5071871;28;20020;-23
2022/09/14 03:51:05;;;;;;;1.90;0.55;;;16.90;72.40;;;;;;5071441;28;20044;-23
2022/09/14 03:53:31;;;;;;;2.88;0.70;;;16.90;72.60;;;;;;5071594;28;20162;-23
2022/09/14 03:55:57;;;;;;;1.65;0.70;;;16.90;72.70;;;;;;5071593;28;20036;-40
2022/09/14 03:58:23;;;;;;;3.28;0.55;;;16.90;72.80;;;;;;5071546;28;20016;-42
2022/09/14 04:00:49;;;;;;;3.40;0.80;;;16.90;72.90;;;;;;5071491;28;20029;-26
2022/09/14 04:03:15;;;;;;;3.58;0.75;;;16.90;72.90;;;;;;5071684;28;20024;-27
2022/09/14 04:05:41;;;;;;;4.22;0.70;;;16.90;73.00;;;;;;5071957;28;20028;-28
2022/09/14 04:08:07;;;;;;;3.45;0.70;;;16.90;73.00;;;;;;5070272;28;20037;-26
2022/09/14 04:10:32;;;;;;;2.08;0.60;;;16.90;73.10;;;;;;5071602;28;20123;-24
2022/09/14 04:13:00;;;;;;;1.20;0.60;;;16.80;73.10;;;;;;5071496;28;20021;-24
2022/09/14 04:15:26;;;;;;;1.88;0.73;;;16.80;73.20;;;;;;5071594;28;20021;-24
2022/09/14 04:17:52;;;;;;;3.40;0.60;;;16.80;73.40;;;;;;5071905;28;20427;-24
2022/09/14 04:20:19;;;;;;;4.55;1.55;;;16.80;73.50;;;;;;5070060;28;20131;-24
2022/09/14 04:22:44;;;;;;;3.58;1.10;;;16.80;73.50;;;;;;5071624;28;20058;-23
2022/09/14 04:25:11;;;;;;;3.83;1.00;;;16.80;73.60;;;;;;5071554;28;20492;-26
2022/09/14 04:27:36;;;;;;;2.22;0.70;;;16.80;73.70;;;;;;5071632;28;20025;-27
2022/09/14 04:30:04;;;;;;;2.10;0.70;;;16.80;73.70;;;;;;5071218;28;20503;-29
2022/09/14 04:32:30;;;;;;;1.63;0.82;;;16.80;73.80;;;;;;5069716;28;20050;-26
2022/09/14 04:34:55;;;;;;;1.65;0.80;;;16.80;73.90;;;;;;5071321;28;20096;-24
2022/09/14 04:37:21;;;;;;;4.55;1.50;;;16.80;74.00;;;;;;5071564;28;20024;-24
2022/09/14 04:39:47;;;;;;;4.50;0.90;;;16.80;74.10;;;;;;5071617;28;20497;-24
2022/09/14 04:42:12;;;;;;;2.88;0.77;;;16.80;74.10;;;;;;5071476;28;20445;-24
2022/09/14 04:44:38;;;;;;;2.22;0.60;;;16.80;74.10;;;;;;5071125;28;20033;-23
2022/09/14 04:47:03;;;;;;;2.38;0.90;;;16.80;74.20;;;;;;5069866;28;20027;-25
2022/09/14 04:49:29;;;;;;;3.55;0.85;;;16.80;74.30;;;;;;5069821;28;20086;-42
2022/09/14 04:51:54;;;;;;;4.13;0.80;;;16.80;74.40;;;;;;5071020;28;20480;-30
2022/09/14 04:54:20;;;;;;;3.85;0.90;;;16.80;74.50;;;;;;5071067;28;20024;-24
2022/09/14 04:56:46;;;;;;;2.22;0.75;;;16.80;74.50;;;;;;5072156;28;20101;-26
2022/09/14 04:59:14;;;;;;;2.30;0.70;;;16.70;74.60;;;;;;5074677;28;20090;-30
2022/09/14 05:01:42;;;;;;;3.42;0.95;;;16.70;74.70;;;;;;5074954;28;20120;-24
2022/09/14 05:04:09;;;;;;;3.92;0.70;;;16.70;74.70;;;;;;5074613;28;20032;-24
2022/09/14 05:06:37;;;;;;;2.17;0.70;;;16.70;74.70;;;;;;5074612;28;20107;-23
2022/09/14 05:09:05;;;;;;;2.28;0.68;;;16.70;74.80;;;;;;5074837;28;20032;-25
2022/09/14 05:11:33;;;;;;;3.00;0.88;;;16.70;75.00;;;;;;5074455;28;20089;-24
2022/09/14 05:13:59;;;;;;;2.13;0.80;;;16.70;75.00;;;;;;5074393;28;20424;-39
2022/09/14 05:16:30;;;;;;;4.00;0.90;;;16.70;75.00;;;;;;5074534;28;20025;-42
2022/09/14 05:19:08;;;;;;;3.42;0.80;;;16.70;75.00;;;;;;5074390;28;20032;-41
2022/09/14 05:21:36;;;;;;;8.40;2.15;;;16.70;75.10;;;;;;5074266;28;20016;-26
2022/09/14 05:24:11;;;;;;;2.70;0.80;;;16.70;75.10;;;;;;5074931;28;20032;-39
2022/09/14 05:26:37;;;;;;;8.80;4.13;;;16.70;75.20;;;;;;5074479;28;20029;-42
2022/09/14 05:29:03;;;;;;;18.50;11.68;;;16.70;75.20;;;;;;5074186;28;20405;-41
2022/09/14 05:31:30;;;;;;;8.88;5.07;;;16.70;75.10;;;;;;5073899;28;20082;-39
2022/09/14 05:33:57;;;;;;;5.47;2.90;;;16.70;75.10;;;;;;5074373;28;20214;-40
2022/09/14 05:36:23;;;;;;;3.88;1.73;;;16.70;75.10;;;;;;5074056;28;20387;-39
2022/09/14 05:38:48;;;;;;;2.92;1.40;;;16.60;75.10;;;;;;5072965;28;20394;-26
2022/09/14 05:41:15;;;;;;;3.15;1.50;;;16.60;75.20;;;;;;5073987;28;20024;-23
2022/09/14 05:43:41;;;;;;;4.55;1.08;;;16.60;75.20;;;;;;5074311;28;20494;-24
2022/09/14 05:46:10;;;;;;;4.65;1.27;;;16.60;75.20;;;;;;5074192;28;20480;-24
2022/09/14 05:48:37;;;;;;;2.53;0.85;;;16.60;75.30;;;;;;5073911;28;20491;-24
2022/09/14 05:51:09;;;;;;;4.63;1.20;;;16.60;75.40;;;;;;5073865;28;20135;-28
2022/09/14 05:53:35;;;;;;;3.60;0.85;;;16.60;75.40;;;;;;5073842;28;20028;-40
2022/09/14 05:56:07;;;;;;;3.28;1.10;;;16.60;75.50;;;;;;5073783;28;20024;-40
2022/09/14 05:58:33;;;;;;;3.05;0.93;;;16.70;75.60;;;;;;5073571;28;20023;-41
2022/09/14 06:01:06;;;;;;;2.78;0.77;;;16.70;75.60;;;;;;5074012;28;20036;-37
2022/09/14 06:03:31;;;;;;;2.58;0.80;;;16.70;75.60;;;;;;5073616;28;20024;-40
2022/09/14 06:05:57;;;;;;;3.17;1.02;;;16.60;75.50;;;;;;5073500;28;20039;-41
2022/09/14 06:08:23;;;;;;;2.03;0.70;;;16.60;75.60;;;;;;5073086;28;20103;-41
2022/09/14 06:10:48;;;;;;;2.53;1.00;;;16.60;75.70;;;;;;5071925;28;20028;-41
2022/09/14 06:13:14;;;;;;;3.95;1.10;;;16.50;75.70;;;;;;5073595;28;20070;-42
2022/09/14 06:15:39;;;;;;;3.20;0.73;;;16.50;75.80;;;;;;5072033;28;20054;-41
2022/09/14 06:18:05;;;;;;;1.95;0.98;;;16.60;75.90;;;;;;5073417;28;20016;-39
2022/09/14 06:20:31;;;;;;;2.60;0.80;;;16.60;75.90;;;;;;5073399;28;20028;-24
2022/09/14 06:22:56;;;;;;;2.35;1.00;;;16.60;75.80;;;;;;5073660;28;20177;-24
2022/09/14 06:25:22;;;;;;;2.95;0.90;;;16.60;75.80;;;;;;5072140;28;20024;-23
2022/09/14 06:27:48;;;;;;;5.60;0.90;;;16.70;75.90;;;;;;5073349;28;20024;-24
2022/09/14 06:30:15;;;;;;;4.18;2.20;;;16.70;75.80;;;;;;5073034;28;20448;-24
2022/09/14 06:32:41;;;;;;;3.05;1.45;;;16.70;75.70;;;;;;5073290;28;20417;-42
2022/09/14 06:35:07;;;;;;;2.10;1.00;;;16.80;75.70;;;;;;5073181;28;20055;-41
2022/09/14 06:37:32;;;;;;;2.80;1.10;;;16.80;75.70;;;;;;5073068;28;20155;-42
2022/09/14 06:39:58;;;;;;;2.17;1.10;;;16.80;75.70;;;;;;5072876;28;20491;-42
2022/09/14 06:42:23;;;;;;;2.97;1.08;;;16.80;75.70;;;;;;5072853;28;20036;-42
2022/09/14 06:44:49;;;;;;;3.88;0.80;;;16.80;76.20;;;;;;5072712;28;20026;-40
2022/09/14 06:47:14;;;;;;;2.42;0.90;;;16.80;75.70;;;;;;5072769;28;20059;-43
2022/09/14 06:49:40;;;;;;;2.55;1.00;;;16.80;75.70;;;;;;5072935;28;20487;-27
2022/09/14 06:52:05;;;;;;;3.28;1.00;;;16.80;75.90;;;;;;5072736;28;20132;-27
2022/09/14 06:54:31;;;;;;;3.40;0.90;;;16.80;75.80;;;;;;5072915;28;20016;-42
2022/09/14 06:56:57;;;;;;;3.47;1.08;;;16.80;75.80;;;;;;5072633;28;20348;-40
2022/09/14 06:59:23;;;;;;;2.75;1.38;;;16.80;75.80;;;;;;5071292;28;20016;-42
2022/09/14 07:01:48;;;;;;;3.55;1.02;;;16.80;75.80;;;;;;5072585;28;20494;-42
2022/09/14 07:04:15;;;;;;;3.10;1.35;;;16.80;75.80;;;;;;5072476;28;20360;-42
2022/09/14 07:06:46;;;;;;;2.35;0.95;;;16.90;75.80;;;;;;5072751;28;20020;-41
2022/09/14 07:09:13;;;;;;;2.13;1.10;;;16.90;75.70;;;;;;5072345;28;20383;-24
2022/09/14 07:11:39;;;;;;;2.60;1.00;;;16.90;75.60;;;;;;5072465;28;20097;-26
2022/09/14 07:14:06;;;;;;;3.35;0.90;;;16.90;75.60;;;;;;5072262;28;20024;-24
2022/09/14 07:16:33;;;;;;;4.57;1.10;;;17.00;75.70;;;;;;5072351;28;20020;-25
2022/09/14 07:19:00;;;;;;;2.13;0.95;;;17.00;75.70;;;;;;5070891;28;20016;-26
2022/09/14 07:21:27;;;;;;;3.30;1.20;;;17.00;75.70;;;;;;5071301;28;20059;-25
2022/09/14 07:23:54;;;;;;;3.00;0.98;;;17.00;75.80;;;;;;5072217;28;20029;-26
2022/09/14 07:26:23;;;;;;;3.20;1.13;;;17.00;75.70;;;;;;5072297;28;20055;-24
2022/09/14 07:29:03;;;;;;;5.85;1.17;;;17.00;76.20;;;;;;5072076;28;20035;-25
2022/09/14 07:31:39;;;;;;;2.85;0.90;;;17.00;75.50;;;;;;5071748;28;20444;-25
2022/09/14 07:34:05;;;;;;;2.33;0.98;;;17.00;75.50;;;;;;5054638;28;20024;-26
2022/09/14 07:36:34;;;;;;;3.13;1.00;;;17.00;75.50;;;;;;5071950;28;20024;-24
2022/09/14 07:39:00;;;;;;;3.33;1.02;;;17.00;75.60;;;;;;5071820;28;20020;-24
2022/09/14 07:41:28;;;;;;;5.07;1.20;;;17.00;75.60;;;;;;5071758;28;20410;-25
2022/09/14 07:43:56;;;;;;;2.55;0.80;;;17.00;75.60;;;;;;5071739;28;20388;-24
2022/09/14 07:46:22;;;;;;;2.95;1.00;;;17.00;75.50;;;;;;5071987;28;20025;-25
2022/09/14 07:48:54;;;;;;;2.05;0.77;;;17.00;75.60;;;;;;5071847;28;20499;-27
2022/09/14 07:51:20;;;;;;;4.53;1.20;;;17.00;75.60;;;;;;5071689;28;20037;-38
2022/09/14 07:53:45;;;;;;;2.63;0.88;;;17.00;75.60;;;;;;5071859;28;20013;-42
2022/09/14 07:56:15;;;;;;;3.72;1.33;;;17.10;75.70;;;;;;5072003;28;20025;-41
2022/09/14 07:58:41;;;;;;;3.97;0.95;;;17.10;75.70;;;;;;5071566;28;20024;-41
2022/09/14 08:01:10;;;;;;;2.97;1.00;;;17.20;75.60;;;;;;5071840;28;20472;-42
2022/09/14 08:03:37;;;;;;;6.32;0.95;;;17.20;75.40;;;;;;5071841;28;20464;-41
2022/09/14 08:06:08;;;;;;;3.08;0.82;;;17.30;75.40;;;;;;5071882;28;20028;-40
2022/09/14 08:08:39;;;;;;;2.40;0.90;;;17.30;75.30;;;;;;5071824;28;20500;-41
2022/09/14 08:11:10;;;;;;;2.33;0.70;;;17.30;75.20;;;;;;5071781;28;20029;-40
2022/09/14 08:13:37;;;;;;;7.10;3.25;;;17.30;75.10;;;;;;5071533;28;20491;-41
2022/09/14 08:16:04;;;;;;;8.50;4.72;;;17.30;75.10;;;;;;5071487;28;20383;-40
2022/09/14 08:18:31;;;;;;;4.50;2.42;;;17.30;75.10;;;;;;5071742;28;20017;-40
2022/09/14 08:21:03;;;;;;;3.92;1.85;;;17.30;75.10;;;;;;5071808;28;20032;-42
2022/09/14 08:23:29;;;;;;;3.67;1.80;;;17.30;75.00;;;;;;5071415;28;20033;-39
2022/09/14 08:25:54;;;;;;;2.38;1.25;;;17.30;75.10;;;;;;5071476;28;20032;-39
2022/09/14 08:28:21;;;;;;;2.72;1.02;;;17.30;75.20;;;;;;5071457;28;20495;-42
2022/09/14 08:30:46;;;;;;;2.13;0.80;;;17.30;75.30;;;;;;5071397;28;20036;-41
2022/09/14 08:33:12;;;;;;;3.38;1.10;;;17.30;75.20;;;;;;5074729;28;20421;-42
2022/09/14 08:35:43;;;;;;;1.92;0.85;;;17.30;75.20;;;;;;5075962;28;20024;-40
2022/09/14 08:38:09;;;;;;;4.65;0.93;;;17.30;75.20;;;;;;5075347;28;20013;-40
2022/09/14 08:40:43;;;;;;;4.95;1.00;;;17.30;75.10;;;;;;5075378;28;20445;-39
2022/09/14 08:43:11;;;;;;;6.07;1.00;;;17.40;75.10;;;;;;5075193;28;20033;-39
2022/09/14 08:45:40;;;;;;;2.42;0.75;;;17.40;75.00;;;;;;5073946;28;20016;-42
2022/09/14 08:48:22;;;;;;;1.95;0.88;;;17.30;75.00;;;;;;5075378;28;20028;-27
2022/09/14 08:50:52;;;;;;;4.45;0.80;;;17.30;75.10;;;;;;5074739;28;20056;-27
2022/09/14 08:53:21;;;;;;;2.88;0.85;;;17.30;75.10;;;;;;5074914;28;20051;-38
2022/09/14 08:55:47;;;;;;;4.18;0.88;;;17.40;75.10;;;;;;5074853;28;20025;-40
2022/09/14 08:58:28;;;;;;;2.03;0.98;;;17.40;75.10;;;;;;5074767;28;20472;-40
2022/09/14 09:01:06;;;;;;;3.22;0.85;;;17.40;75.10;;;;;;5075137;28;20035;-41
2022/09/14 09:04:00;;;;;;;2.40;0.75;;;17.40;74.90;;;;;;5074932;28;20039;-39
2022/09/14 09:06:51;;;;;;;3.30;0.90;;;17.50;74.90;;;;;;5074855;28;20082;-42
2022/09/14 09:09:41;;;;;;;3.50;1.00;;;17.50;74.90;;;;;;5073435;28;20040;-39
2022/09/14 09:12:16;;;;;;;1.17;0.60;;;17.50;74.80;;;;;;5074742;28;20107;-42
2022/09/14 09:14:54;;;;;;;4.25;0.90;;;17.50;74.80;;;;;;5074811;28;20024;-41
2022/09/14 09:17:34;;;;;;;3.22;0.63;;;17.60;74.80;;;;;;5074614;28;20025;-26
2022/09/14 09:20:31;;;;;;;2.47;0.73;;;17.60;74.70;;;;;;5074723;28;20028;-25
2022/09/14 09:23:19;;;;;;;2.45;0.70;;;17.60;74.70;;;;;;5074341;28;20025;-40
2022/09/14 09:26:05;;;;;;;2.85;0.80;;;17.60;74.60;;;;;;5074286;28;20028;-41
2022/09/14 09:28:32;;;;;;;3.13;1.15;;;17.60;74.50;;;;;;5073423;28;20067;-41
2022/09/14 09:31:03;;;;;;;2.53;0.70;;;17.70;74.50;;;;;;5074355;28;20030;-42
2022/09/14 09:33:29;;;;;;;3.55;0.93;;;17.70;74.40;;;;;;5073980;28;20044;-41
2022/09/14 09:35:55;;;;;;;0.73;0.55;;;17.70;74.30;;;;;;5074236;28;20131;-24
2022/09/14 09:38:24;;;;;;;0.60;0.50;;;17.80;74.30;;;;;;5074282;28;20056;-24
2022/09/14 09:40:58;;;;;;;2.28;0.70;;;17.70;74.20;;;;;;5074149;28;20024;-40
2022/09/14 09:43:24;;;;;;;0.95;0.40;;;17.70;74.20;;;;;;5073102;28;20032;-39
2022/09/14 09:46:05;;;;;;;2.60;0.73;;;17.70;74.20;;;;;;5073980;28;20020;-39
2022/09/14 09:48:42;;;;;;;4.70;0.90;;;17.80;74.20;;;;;;5073697;28;20021;-42
2022/09/14 09:51:14;;;;;;;2.55;0.73;;;17.80;74.30;;;;;;5073531;28;20090;-35
2022/09/14 09:53:49;;;;;;;1.42;0.60;;;17.80;74.10;;;;;;5073921;28;20054;-37
2022/09/14 09:56:30;;;;;;;2.25;0.70;;;17.80;74.10;;;;;;5073810;28;20465;-43
2022/09/14 09:58:56;;;;;;;2.78;0.60;;;17.80;74.10;;;;;;5073639;28;20013;-36
2022/09/14 10:01:33;;;;;;;1.95;0.85;;;17.80;74.10;;;;;;5073751;28;20024;-42
2022/09/14 10:04:20;;;;;;;1.75;0.70;;;17.90;74.10;;;;;;5073559;28;20428;-41
2022/09/14 10:06:51;;;;;;;2.53;0.65;;;17.90;73.90;;;;;;5073677;28;20031;-41
2022/09/14 10:09:21;;;;;;;2.00;0.70;;;18.00;73.80;;;;;;5073297;28;20028;-41
2022/09/14 10:12:01;;;;;;;2.50;0.70;;;17.90;73.70;;;;;;5072002;28;20106;-43
2022/09/14 10:14:35;;;;;;;3.90;2.35;;;18.00;73.80;;;;;;5073383;28;20111;-38
2022/09/14 10:17:26;;;;;;;3.53;2.00;;;18.00;73.70;;;;;;5073118;28;20056;-42
2022/09/14 10:19:54;;;;;;;3.85;1.55;;;18.00;73.60;;;;;;5072918;28;20117;-39
2022/09/14 10:22:36;;;;;;;2.13;1.27;;;18.00;73.60;;;;;;5073206;28;20016;-43
2022/09/14 10:25:14;;;;;;;2.10;0.88;;;18.00;73.50;;;;;;5073062;28;20039;-40
2022/09/14 10:27:54;;;;;;;2.42;0.80;;;18.10;73.50;;;;;;5073054;28;20066;-39
2022/09/14 10:30:23;;;;;;;3.60;0.85;;;18.10;73.50;;;;;;5072591;28;20059;-40
2022/09/14 10:33:00;;;;;;;2.15;0.90;;;18.10;73.40;;;;;;5073003;28;20028;-41
2022/09/14 10:35:55;;;;;;;3.33;1.10;;;18.20;73.40;;;;;;5071489;28;20429;-38
2022/09/14 10:38:35;;;;;;;2.88;0.95;;;18.20;73.10;;;;;;5072503;28;20041;-40
2022/09/14 10:41:04;;;;;;;1.50;0.80;;;18.20;73.00;;;;;;5072679;28;20136;-40
2022/09/14 10:44:07;;;;;;;3.40;1.10;;;18.30;73.00;;;;;;5073237;28;20031;-39
2022/09/14 10:46:43;;;;;;;2.08;0.80;;;18.30;72.90;;;;;;5071577;28;20044;-41
2022/09/14 10:49:46;;;;;;;4.13;0.95;;;18.40;72.90;;;;;;5072567;28;20032;-39
2022/09/14 10:52:39;;;;;;;1.33;0.68;;;18.50;72.90;;;;;;5072537;28;20036;-43
2022/09/14 10:55:59;;;;;;;2.10;0.87;;;18.50;72.80;;;;;;5072351;28;20032;-41
2022/09/14 10:59:04;;;;;;;3.00;1.20;;;18.60;73.40;;;;;;5071155;28;20468;-43
2022/09/14 11:01:50;;;;;;;1.98;1.10;;;18.60;72.60;;;;;;5073190;28;20103;-41
2022/09/14 11:04:38;;;;;;;6.05;1.55;;;18.60;72.60;;;;;;5072585;28;20058;-26
2022/09/14 11:07:11;;;;;;;3.47;1.20;;;18.60;72.60;;;;;;5072204;28;20114;-25
2022/09/14 11:09:44;;;;;;;2.33;0.95;;;18.60;72.60;;;;;;5072349;28;20326;-25
2022/09/14 11:12:19;;;;;;;2.03;1.13;;;18.60;72.60;;;;;;5072344;28;20111;-26
2022/09/14 11:15:20;;;;;;;4.63;1.65;;;18.60;72.60;;;;;;5070799;28;20449;-25
2022/09/14 11:17:56;;;;;;;3.05;1.10;;;18.60;72.60;;;;;;5071995;28;20100;-25
2022/09/14 11:20:48;;;;;;;3.20;1.02;;;18.70;72.60;;;;;;5072037;28;20333;-26
2022/09/14 11:23:32;;;;;;;3.28;1.10;;;18.70;72.60;;;;;;5071038;28;20414;-25
2022/09/14 11:26:13;;;;;;;2.13;1.10;;;18.70;72.50;;;;;;5072033;28;20028;-33
2022/09/14 11:28:48;;;;;;;3.00;1.40;;;18.70;72.50;;;;;;5071840;28;20039;-25
2022/09/14 11:31:27;;;;;;;2.85;1.30;;;18.80;72.50;;;;;;5071973;28;20116;-26
2022/09/14 11:34:11;;;;;;;2.13;1.38;;;18.80;72.40;;;;;;5071904;28;20448;-25
2022/09/14 11:36:43;;;;;;;3.58;1.60;;;18.80;72.60;;;;;;5072138;28;20029;-26
2022/09/14 11:39:29;;;;;;;1.87;1.40;;;18.90;72.70;;;;;;5072194;28;20380;-25
2022/09/14 11:42:05;;;;;;;4.60;1.60;;;18.90;72.60;;;;;;5071729;28;20478;-26
2022/09/14 11:44:37;;;;;;;2.97;1.42;;;18.90;72.40;;;;;;5071706;28;20060;-27
2022/09/14 11:47:17;;;;;;;4.32;1.85;;;19.10;72.40;;;;;;5071919;28;20029;-28
2022/09/14 11:50:04;;;;;;;4.40;1.60;;;19.10;72.20;;;;;;5071626;28;20093;-30
2022/09/14 11:52:32;;;;;;;4.35;1.80;;;19.10;72.10;;;;;;5071320;28;20041;-25
2022/09/14 11:54:59;;;;;;;4.50;2.22;;;19.10;72.00;;;;;;5070275;28;20033;-29
2022/09/14 11:57:30;;;;;;;4.88;1.60;;;19.20;72.10;;;;;;5071724;28;20025;-25
2022/09/14 12:00:00;;;;;;;3.17;1.73;;;19.20;72.10;;;;;;5071540;28;20028;-25
2022/09/14 12:02:28;;;;;;;2.83;1.85;;;19.20;72.10;;;;;;5071737;28;20382;-25
2022/09/14 12:05:03;;;;;;;3.05;1.80;;;19.20;72.10;;;;;;5071745;28;20020;-25
2022/09/14 12:07:38;;;;;;;5.43;1.90;;;19.30;72.00;;;;;;5070735;28;20035;-26
2022/09/14 12:10:13;;;;;;;3.88;1.80;;;19.40;72.00;;;;;;5071496;28;20028;-26
2022/09/14 12:12:41;;;;;;;2.60;1.90;;;19.40;71.90;;;;;;5071545;28;20024;-25
2022/09/14 12:15:25;;;;;;;3.88;1.65;;;19.40;71.80;;;;;;5071338;28;20056;-25
2022/09/14 12:18:12;;;;;;;2.67;1.58;;;19.50;71.80;;;;;;5071471;28;20102;-26
2022/09/14 12:20:51;;;;;;;4.47;1.50;;;19.50;71.80;;;;;;5070597;28;20059;-26
2022/09/14 12:26:56;;;;;;;6.75;1.58;;;19.60;71.60;;;;;;5069370;28;20059;-25
2022/09/14 12:29:32;;;;;;;4.50;1.70;;;19.60;71.50;;;;;;5068957;28;20036;-28
2022/09/14 12:32:04;;;;;;;2.88;1.90;;;19.60;71.50;;;;;;5068810;28;20064;-40
2022/09/14 12:34:32;;;;;;;3.25;1.60;;;19.60;71.40;;;;;;5068757;28;20040;-40
2022/09/14 12:37:31;;;;;;;3.60;1.70;;;19.60;71.40;;;;;;5068904;28;20111;-41
2022/09/14 12:40:28;;;;;;;3.03;1.63;;;19.70;71.50;;;;;;5068824;28;20025;-40
2022/09/14 12:42:54;;;;;;;3.95;1.63;;;19.70;71.40;;;;;;5068776;28;20461;-43
2022/09/14 12:46:02;;;;;;;4.60;1.67;;;19.70;72.00;;;;;;5068834;28;20033;-42
2022/09/14 12:48:49;;;;;;;3.63;1.80;;;19.70;71.20;;;;;;5008885;28;20121;-43
2022/09/14 12:51:17;;;;;;;3.47;1.58;;;19.80;71.00;;;;;;5050960;28;20040;-41
2022/09/14 12:53:44;;;;;;;6.20;1.80;;;19.90;70.90;;;;;;5069091;28;20037;-44
2022/09/14 12:56:22;;;;;;;4.47;1.55;;;20.00;70.80;;;;;;5070961;28;20383;-38
2022/09/14 12:59:09;;;;;;;1.80;1.33;;;20.10;70.60;;;;;;5071082;28;20454;-44
2022/09/14 13:02:31;;;;;;;4.78;1.52;;;20.10;70.50;;;;;;5071040;28;20035;-43
2022/09/14 13:04:58;;;;;;;2.58;1.50;;;20.10;70.20;;;;;;5068925;28;20124;-42
2022/09/14 13:07:32;;;;;;;5.88;1.95;;;20.20;70.20;;;;;;5068960;28;20083;-44
2022/09/14 13:10:00;;;;;;;2.63;1.30;;;20.20;70.00;;;;;;5070035;28;20047;-42
2022/09/14 13:12:40;;;;;;;2.90;1.60;;;20.20;69.90;;;;;;5070766;28;20024;-44
2022/09/14 13:15:23;;;;;;;3.38;1.40;;;20.20;69.70;;;;;;5070742;28;20180;-42
2022/09/14 13:18:11;;;;;;;2.42;1.40;;;20.20;70.30;;;;;;5070824;28;20107;-43